Doric Champion — A8XF5 — position and weather

sailwx.info

Track history (hours):
 
Tides and Currents Weather Stations Pressure Air Temp Water Temp Dewpoint Dewpoint Depression Visibility Wind Speed Wind Dir Waves Ship Positions

Doric Champion

Last reported at 2014-Aug-27 14:33 UTC. Time now 2014-Aug-27 15:11 UTC.
Position N 38°31' W 024°33'.

Length 229 m; draft 14.7 m.

Type: Cargo ship. MMSI: 636014887.

Date/timePositionNaut miles runAvg speedWind from/ knotsBaromVisibWave heightAir tempDewpointWater temp
2014-Aug-27 14:33N 38°31' W 024°33'1111.3
2014-Aug-27 13:34N 38°27' W 024°46'1111.4
2014-Aug-27 12:33N 38°24' W 024°60'1111.3
2014-Aug-27 11:33N 38°20' W 025°13'1110.9
2014-Aug-27 10:33N 38°16' W 025°27'1111.5
2014-Aug-27 09:33N 38°12' W 025°40'1111.3
2014-Aug-27 08:34N 38°09' W 025°54'1211.6
2014-Aug-27 07:34N 38°05' W 026°08'1111.2
2014-Aug-27 06:33N 38°01' W 026°21'1111.4
2014-Aug-27 05:33N 37°55' W 026°34'1110.9
2014-Aug-27 04:33N 37°49' W 026°45'1111.1
2014-Aug-27 03:33N 37°43' W 026°56'1111.1
2014-Aug-27 02:33N 37°37' W 027°08'1111.1
2014-Aug-27 01:33N 37°30' W 027°20'1111.1
2014-Aug-27 00:32N 37°24' W 027°31'1110.8
2014-Aug-26 23:33N 37°18' W 027°42'1110.6
2014-Aug-26 22:33N 37°12' W 027°53'1010.4
2014-Aug-26 21:33N 37°06' W 028°04'1110.7
2014-Aug-26 20:29N 36°60' W 028°16'1010.6
2014-Aug-26 19:33N 36°54' W 028°26'1110.9
2014-Aug-26 18:33N 36°48' W 028°37'1110.6
2014-Aug-26 17:33N 36°42' W 028°48'1110.5
2014-Aug-26 16:33N 36°36' W 028°59'3411.1
2014-Aug-26 13:29N 36°17' W 029°34'  
Track history (hours):
 
Tides and Currents Weather Stations Pressure Air Temp Water Temp Dewpoint Dewpoint Depression Visibility Wind Speed Wind Dir Waves Ship Positions

Doric Champion

Last reported at 2014-Aug-27 14:33 UTC. Time now 2014-Aug-27 15:11 UTC.
Position N 38°31' W 024°33'.

Length 229 m; draft 14.7 m.

Type: Cargo ship. MMSI: 636014887.

Date/timePositionNaut miles runAvg speedWind from/ knotsBaromVisibWave heightAir tempDewpointWater temp
2014-Aug-27 14:33N 38°31' W 024°33'1111.3
2014-Aug-27 13:34N 38°27' W 024°46'1111.4
2014-Aug-27 12:33N 38°24' W 024°60'1111.3
2014-Aug-27 11:33N 38°20' W 025°13'1110.9
2014-Aug-27 10:33N 38°16' W 025°27'1111.5
2014-Aug-27 09:33N 38°12' W 025°40'1111.3
2014-Aug-27 08:34N 38°09' W 025°54'1211.6
2014-Aug-27 07:34N 38°05' W 026°08'1111.2
2014-Aug-27 06:33N 38°01' W 026°21'1111.4
2014-Aug-27 05:33N 37°55' W 026°34'1110.9
2014-Aug-27 04:33N 37°49' W 026°45'1111.1
2014-Aug-27 03:33N 37°43' W 026°56'1111.1
2014-Aug-27 02:33N 37°37' W 027°08'1111.1
2014-Aug-27 01:33N 37°30' W 027°20'1111.1
2014-Aug-27 00:32N 37°24' W 027°31'1110.8
2014-Aug-26 23:33N 37°18' W 027°42'1110.6
2014-Aug-26 22:33N 37°12' W 027°53'1010.4
2014-Aug-26 21:33N 37°06' W 028°04'1110.7
2014-Aug-26 20:29N 36°60' W 028°16'1010.6
2014-Aug-26 19:33N 36°54' W 028°26'1110.9
2014-Aug-26 18:33N 36°48' W 028°37'1110.6
2014-Aug-26 17:33N 36°42' W 028°48'1110.5
2014-Aug-26 16:33N 36°36' W 028°59'3411.1
2014-Aug-26 13:29N 36°17' W 029°34'  

Dump ship's entire track history